sensor_id;sensor_type;location;lat;lon;timestamp;pressure;altitude;pressure_sealevel;temperature;humidity
77005;BME280;67261;53.132;18.006;2024-03-02T00:00:39;100669.02;;;8.67;83.31
77005;BME280;67261;53.132;18.006;2024-03-02T00:03:26;100666.02;;;8.67;83.30
77005;BME280;67261;53.132;18.006;2024-03-02T00:05:53;100664.26;;;8.67;83.41
77005;BME280;67261;53.132;18.006;2024-03-02T00:08:24;100663.95;;;8.68;83.53
77005;BME280;67261;53.132;18.006;2024-03-02T00:10:57;100661.20;;;8.67;83.65
77005;BME280;67261;53.132;18.006;2024-03-02T00:13:24;100662.08;;;8.66;83.43
77005;BME280;67261;53.132;18.006;2024-03-02T00:15:55;100664.77;;;8.63;83.68
77005;BME280;67261;53.132;18.006;2024-03-02T00:18:35;100670.73;;;8.61;83.90
77005;BME280;67261;53.132;18.006;2024-03-02T00:21:06;100671.33;;;8.57;83.96
77005;BME280;67261;53.132;18.006;2024-03-02T00:23:36;100669.24;;;8.52;84.03
77005;BME280;67261;53.132;18.006;2024-03-02T00:26:04;100669.75;;;8.51;84.47
77005;BME280;67261;53.132;18.006;2024-03-02T00:28:36;100667.56;;;8.46;84.36
77005;BME280;67261;53.132;18.006;2024-03-02T00:31:08;100662.86;;;8.42;84.48
77005;BME280;67261;53.132;18.006;2024-03-02T00:33:37;100664.23;;;8.40;84.79
77005;BME280;67261;53.132;18.006;2024-03-02T00:36:07;100662.54;;;8.38;84.80
77005;BME280;67261;53.132;18.006;2024-03-02T00:38:44;100661.36;;;8.35;84.74
77005;BME280;67261;53.132;18.006;2024-03-02T00:41:22;100659.18;;;8.32;85.02
77005;BME280;67261;53.132;18.006;2024-03-02T00:44:03;100660.88;;;8.31;85.07
77005;BME280;67261;53.132;18.006;2024-03-02T00:46:40;100664.20;;;8.31;85.50
77005;BME280;67261;53.132;18.006;2024-03-02T00:51:52;100659.35;;;8.28;85.40
77005;BME280;67261;53.132;18.006;2024-03-02T00:54:21;100660.80;;;8.28;85.48
77005;BME280;67261;53.132;18.006;2024-03-02T00:56:51;100664.98;;;8.26;85.61
77005;BME280;67261;53.132;18.006;2024-03-02T00:59:18;100660.63;;;8.26;85.49
77005;BME280;67261;53.132;18.006;2024-03-02T01:01:45;100659.55;;;8.24;85.86
77005;BME280;67261;53.132;18.006;2024-03-02T01:04:12;100655.71;;;8.24;85.85
77005;BME280;67261;53.132;18.006;2024-03-02T01:06:42;100652.48;;;8.20;85.78
77005;BME280;67261;53.132;18.006;2024-03-02T01:09:09;100646.42;;;8.17;86.26
77005;BME280;67261;53.132;18.006;2024-03-02T01:11:36;100649.69;;;8.14;86.11
77005;BME280;67261;53.132;18.006;2024-03-02T01:14:03;100640.89;;;8.12;86.10
77005;BME280;67261;53.132;18.006;2024-03-02T01:16:30;100633.27;;;8.10;86.36
77005;BME280;67261;53.132;18.006;2024-03-02T01:18:57;100633.58;;;8.09;86.26
77005;BME280;67261;53.132;18.006;2024-03-02T01:21:24;100632.65;;;8.12;86.28
77005;BME280;67261;53.132;18.006;2024-03-02T01:23:51;100632.08;;;8.12;86.58
77005;BME280;67261;53.132;18.006;2024-03-02T01:26:18;100633.89;;;8.10;86.26
77005;BME280;67261;53.132;18.006;2024-03-02T01:28:45;100628.30;;;8.09;86.73
77005;BME280;67261;53.132;18.006;2024-03-02T01:31:12;100628.10;;;8.07;86.67
77005;BME280;67261;53.132;18.006;2024-03-02T01:33:39;100621.51;;;8.05;86.57
77005;BME280;67261;53.132;18.006;2024-03-02T01:36:07;100614.58;;;8.03;86.55
77005;BME280;67261;53.132;18.006;2024-03-02T01:38:35;100608.51;;;8.04;86.38
77005;BME280;67261;53.132;18.006;2024-03-02T01:41:02;100607.57;;;8.05;86.53
77005;BME280;67261;53.132;18.006;2024-03-02T01:43:29;100608.11;;;8.04;86.37
77005;BME280;67261;53.132;18.006;2024-03-02T01:45:56;100609.84;;;8.05;86.60
77005;BME280;67261;53.132;18.006;2024-03-02T01:48:25;100612.27;;;8.05;86.69
77005;BME280;67261;53.132;18.006;2024-03-02T01:50:52;100615.70;;;8.03;86.87
77005;BME280;67261;53.132;18.006;2024-03-02T01:53:23;100615.19;;;8.00;86.66
77005;BME280;67261;53.132;18.006;2024-03-02T01:55:50;100616.02;;;7.99;86.80
77005;BME280;67261;53.132;18.006;2024-03-02T01:58:17;100609.80;;;7.96;86.63
77005;BME280;67261;53.132;18.006;2024-03-02T02:00:44;100607.85;;;7.96;86.84
77005;BME280;67261;53.132;18.006;2024-03-02T02:03:11;100609.48;;;7.99;86.78
77005;BME280;67261;53.132;18.006;2024-03-02T02:05:38;100610.02;;;7.97;86.82
77005;BME280;67261;53.132;18.006;2024-03-02T02:08:05;100613.05;;;7.95;86.56
77005;BME280;67261;53.132;18.006;2024-03-02T02:10:32;100608.47;;;7.95;86.71
77005;BME280;67261;53.132;18.006;2024-03-02T02:12:59;100603.23;;;7.95;86.56
77005;BME280;67261;53.132;18.006;2024-03-02T02:15:30;100604.13;;;7.92;86.61
77005;BME280;67261;53.132;18.006;2024-03-02T02:17:58;100600.91;;;7.91;86.54
77005;BME280;67261;53.132;18.006;2024-03-02T02:20:25;100599.27;;;7.90;86.66
77005;BME280;67261;53.132;18.006;2024-03-02T02:23:00;100598.67;;;7.87;86.65
77005;BME280;67261;53.132;18.006;2024-03-02T02:25:28;100605.40;;;7.82;86.54
77005;BME280;67261;53.132;18.006;2024-03-02T02:27:56;100607.70;;;7.81;86.65
77005;BME280;67261;53.132;18.006;2024-03-02T02:30:28;100609.80;;;7.79;86.59
77005;BME280;67261;53.132;18.006;2024-03-02T02:32:55;100611.31;;;7.78;86.94
77005;BME280;67261;53.132;18.006;2024-03-02T02:35:23;100614.05;;;7.71;87.08
77005;BME280;67261;53.132;18.006;2024-03-02T02:37:54;100612.68;;;7.66;87.22
77005;BME280;67261;53.132;18.006;2024-03-02T02:40:21;100608.98;;;7.62;87.08
77005;BME280;67261;53.132;18.006;2024-03-02T02:42:48;100604.27;;;7.62;87.23
77005;BME280;67261;53.132;18.006;2024-03-02T02:45:15;100601.77;;;7.62;86.90
77005;BME280;67261;53.132;18.006;2024-03-02T02:47:42;100605.25;;;7.62;86.92
77005;BME280;67261;53.132;18.006;2024-03-02T02:50:10;100605.67;;;7.58;87.16
77005;BME280;67261;53.132;18.006;2024-03-02T02:52:39;100604.05;;;7.54;87.27
77005;BME280;67261;53.132;18.006;2024-03-02T02:55:08;100602.10;;;7.51;87.25
77005;BME280;67261;53.132;18.006;2024-03-02T02:57:36;100604.34;;;7.47;87.32
77005;BME280;67261;53.132;18.006;2024-03-02T03:00:15;100603.80;;;7.44;87.22
77005;BME280;67261;53.132;18.006;2024-03-02T03:02:44;100603.14;;;7.41;87.30
77005;BME280;67261;53.132;18.006;2024-03-02T03:05:12;100600.59;;;7.40;87.38
77005;BME280;67261;53.132;18.006;2024-03-02T03:07:40;100605.08;;;7.38;87.12
77005;BME280;67261;53.132;18.006;2024-03-02T03:10:08;100605.96;;;7.33;87.46
77005;BME280;67261;53.132;18.006;2024-03-02T03:12:35;100604.30;;;7.31;87.39
77005;BME280;67261;53.132;18.006;2024-03-02T03:15:05;100601.22;;;7.27;87.58
77005;BME280;67261;53.132;18.006;2024-03-02T03:17:33;100603.23;;;7.25;87.52
77005;BME280;67261;53.132;18.006;2024-03-02T03:20:01;100606.60;;;7.22;87.63
77005;BME280;67261;53.132;18.006;2024-03-02T03:22:30;100607.92;;;7.19;87.64
77005;BME280;67261;53.132;18.006;2024-03-02T03:24:58;100604.20;;;7.18;87.62
77005;BME280;67261;53.132;18.006;2024-03-02T03:27:26;100603.36;;;7.17;87.76
77005;BME280;67261;53.132;18.006;2024-03-02T03:29:53;100603.96;;;7.14;87.94
77005;BME280;67261;53.132;18.006;2024-03-02T03:32:21;100598.08;;;7.13;87.89
77005;BME280;67261;53.132;18.006;2024-03-02T03:34:48;100597.19;;;7.15;87.86
77005;BME280;67261;53.132;18.006;2024-03-02T03:37:15;100595.23;;;7.17;87.92
77005;BME280;67261;53.132;18.006;2024-03-02T03:39:42;100593.50;;;7.19;87.82
77005;BME280;67261;53.132;18.006;2024-03-02T03:42:09;100593.98;;;7.20;88.24
77005;BME280;67261;53.132;18.006;2024-03-02T03:44:36;100592.13;;;7.21;87.71
77005;BME280;67261;53.132;18.006;2024-03-02T03:47:03;100592.12;;;7.23;87.73
77005;BME280;67261;53.132;18.006;2024-03-02T03:49:29;100586.16;;;7.25;87.70
77005;BME280;67261;53.132;18.006;2024-03-02T03:51:56;100589.04;;;7.26;87.79
77005;BME280;67261;53.132;18.006;2024-03-02T03:54:23;100591.96;;;7.25;87.48
77005;BME280;67261;53.132;18.006;2024-03-02T03:56:50;100588.77;;;7.25;87.52
77005;BME280;67261;53.132;18.006;2024-03-02T03:59:17;100589.20;;;7.28;87.56
77005;BME280;67261;53.132;18.006;2024-03-02T04:01:44;100587.23;;;7.29;87.39
77005;BME280;67261;53.132;18.006;2024-03-02T04:04:10;100582.35;;;7.30;87.43
77005;BME280;67261;53.132;18.006;2024-03-02T04:06:37;100581.70;;;7.29;87.25
77005;BME280;67261;53.132;18.006;2024-03-02T04:09:04;100579.11;;;7.29;87.30
77005;BME280;67261;53.132;18.006;2024-03-02T04:11:31;100576.25;;;7.29;87.41
77005;BME280;67261;53.132;18.006;2024-03-02T04:13:58;100578.23;;;7.29;87.37
77005;BME280;67261;53.132;18.006;2024-03-02T04:16:25;100576.52;;;7.28;87.29
77005;BME280;67261;53.132;18.006;2024-03-02T04:18:52;100578.59;;;7.29;87.12
77005;BME280;67261;53.132;18.006;2024-03-02T04:21:19;100576.00;;;7.28;87.10
77005;BME280;67261;53.132;18.006;2024-03-02T04:23:46;100571.69;;;7.29;87.21
77005;BME280;67261;53.132;18.006;2024-03-02T04:26:13;100569.28;;;7.29;87.14
77005;BME280;67261;53.132;18.006;2024-03-02T04:28:41;100569.30;;;7.30;87.18
77005;BME280;67261;53.132;18.006;2024-03-02T04:31:08;100565.04;;;7.31;87.05
77005;BME280;67261;53.132;18.006;2024-03-02T04:33:35;100566.90;;;7.31;87.05
77005;BME280;67261;53.132;18.006;2024-03-02T04:36:02;100572.08;;;7.32;86.93
77005;BME280;67261;53.132;18.006;2024-03-02T04:38:29;100569.20;;;7.31;86.92
77005;BME280;67261;53.132;18.006;2024-03-02T04:40:57;100566.64;;;7.32;86.77
77005;BME280;67261;53.132;18.006;2024-03-02T04:43:24;100564.77;;;7.32;86.79
77005;BME280;67261;53.132;18.006;2024-03-02T04:45:51;100568.73;;;7.31;86.74
77005;BME280;67261;53.132;18.006;2024-03-02T04:48:18;100577.52;;;7.31;86.74
77005;BME280;67261;53.132;18.006;2024-03-02T04:50:45;100571.89;;;7.33;86.61
77005;BME280;67261;53.132;18.006;2024-03-02T04:53:12;100584.83;;;7.34;86.65
77005;BME280;67261;53.132;18.006;2024-03-02T04:55:40;100589.50;;;7.34;86.70
77005;BME280;67261;53.132;18.006;2024-03-02T04:58:07;100591.41;;;7.35;86.57
77005;BME280;67261;53.132;18.006;2024-03-02T05:00:34;100600.04;;;7.35;86.45
77005;BME280;67261;53.132;18.006;2024-03-02T05:03:04;100595.45;;;7.35;86.61
77005;BME280;67261;53.132;18.006;2024-03-02T05:05:31;100603.70;;;7.37;86.62
77005;BME280;67261;53.132;18.006;2024-03-02T05:07:58;100602.83;;;7.37;86.49
77005;BME280;67261;53.132;18.006;2024-03-02T05:10:24;100607.02;;;7.37;86.52
77005;BME280;67261;53.132;18.006;2024-03-02T05:12:54;100602.25;;;7.42;86.49
77005;BME280;67261;53.132;18.006;2024-03-02T05:15:25;100609.34;;;7.41;86.29
77005;BME280;67261;53.132;18.006;2024-03-02T05:17:52;100607.67;;;7.40;86.45
77005;BME280;67261;53.132;18.006;2024-03-02T05:20:20;100611.23;;;7.39;86.40
77005;BME280;67261;53.132;18.006;2024-03-02T05:22:47;100611.80;;;7.37;86.53
77005;BME280;67261;53.132;18.006;2024-03-02T05:25:15;100612.92;;;7.36;86.54
77005;BME280;67261;53.132;18.006;2024-03-02T05:27:42;100611.23;;;7.36;86.48
77005;BME280;67261;53.132;18.006;2024-03-02T05:30:09;100612.76;;;7.38;86.52
77005;BME280;67261;53.132;18.006;2024-03-02T05:32:36;100614.66;;;7.38;86.42
77005;BME280;67261;53.132;18.006;2024-03-02T05:35:04;100614.73;;;7.40;86.55
77005;BME280;67261;53.132;18.006;2024-03-02T05:37:31;100621.98;;;7.39;86.48
77005;BME280;67261;53.132;18.006;2024-03-02T05:39:58;100617.05;;;7.41;86.54
77005;BME280;67261;53.132;18.006;2024-03-02T05:42:26;100615.14;;;7.43;86.46
77005;BME280;67261;53.132;18.006;2024-03-02T05:44:53;100620.81;;;7.42;86.45
77005;BME280;67261;53.132;18.006;2024-03-02T05:47:21;100627.63;;;7.41;86.57
77005;BME280;67261;53.132;18.006;2024-03-02T05:49:48;100623.00;;;7.40;86.56
77005;BME280;67261;53.132;18.006;2024-03-02T05:52:15;100630.83;;;7.41;86.48
77005;BME280;67261;53.132;18.006;2024-03-02T05:54:42;100625.59;;;7.42;86.47
77005;BME280;67261;53.132;18.006;2024-03-02T05:57:09;100643.44;;;7.43;86.44
77005;BME280;67261;53.132;18.006;2024-03-02T05:59:54;100637.77;;;7.42;86.41
77005;BME280;67261;53.132;18.006;2024-03-02T06:02:21;100640.64;;;7.41;86.45
77005;BME280;67261;53.132;18.006;2024-03-02T06:04:48;100647.14;;;7.43;86.60
77005;BME280;67261;53.132;18.006;2024-03-02T06:07:15;100650.67;;;7.45;86.65
77005;BME280;67261;53.132;18.006;2024-03-02T06:09:42;100650.34;;;7.47;86.51
77005;BME280;67261;53.132;18.006;2024-03-02T06:12:09;100648.37;;;7.45;86.35
77005;BME280;67261;53.132;18.006;2024-03-02T06:14:36;100651.48;;;7.46;86.56
77005;BME280;67261;53.132;18.006;2024-03-02T06:17:03;100652.14;;;7.49;86.60
77005;BME280;67261;53.132;18.006;2024-03-02T06:19:29;100650.60;;;7.48;86.53
77005;BME280;67261;53.132;18.006;2024-03-02T06:21:56;100651.13;;;7.48;86.50
77005;BME280;67261;53.132;18.006;2024-03-02T06:24:23;100654.18;;;7.49;86.47
77005;BME280;67261;53.132;18.006;2024-03-02T06:26:53;100653.42;;;7.50;86.47
77005;BME280;67261;53.132;18.006;2024-03-02T06:29:20;100651.39;;;7.53;86.50
77005;BME280;67261;53.132;18.006;2024-03-02T06:31:47;100652.00;;;7.56;86.57
77005;BME280;67261;53.132;18.006;2024-03-02T06:34:14;100654.33;;;7.63;86.51
77005;BME280;67261;53.132;18.006;2024-03-02T06:36:41;100656.81;;;7.69;86.14
77005;BME280;67261;53.132;18.006;2024-03-02T06:39:09;100662.02;;;7.72;86.15
77005;BME280;67261;53.132;18.006;2024-03-02T06:41:37;100664.11;;;7.74;86.03
77005;BME280;67261;53.132;18.006;2024-03-02T06:44:04;100659.74;;;7.76;85.94
77005;BME280;67261;53.132;18.006;2024-03-02T06:46:32;100656.63;;;7.75;86.03
77005;BME280;67261;53.132;18.006;2024-03-02T06:48:59;100651.90;;;7.75;85.96
77005;BME280;67261;53.132;18.006;2024-03-02T06:51:26;100652.77;;;7.75;86.01
77005;BME280;67261;53.132;18.006;2024-03-02T06:53:53;100652.29;;;7.78;85.98
77005;BME280;67261;53.132;18.006;2024-03-02T06:56:20;100643.95;;;7.83;85.94
77005;BME280;67261;53.132;18.006;2024-03-02T06:58:47;100640.16;;;7.89;85.79
77005;BME280;67261;53.132;18.006;2024-03-02T07:01:14;100641.52;;;7.96;85.64
77005;BME280;67261;53.132;18.006;2024-03-02T07:03:41;100637.23;;;8.00;85.43
77005;BME280;67261;53.132;18.006;2024-03-02T07:06:10;100635.05;;;8.07;85.27
77005;BME280;67261;53.132;18.006;2024-03-02T07:08:38;100640.08;;;8.13;85.37
77005;BME280;67261;53.132;18.006;2024-03-02T07:11:09;100643.53;;;8.20;85.34
77005;BME280;67261;53.132;18.006;2024-03-02T07:13:36;100646.59;;;8.25;85.07
77005;BME280;67261;53.132;18.006;2024-03-02T07:16:04;100659.05;;;8.26;84.79
77005;BME280;67261;53.132;18.006;2024-03-02T07:18:37;100659.56;;;8.26;84.62
77005;BME280;67261;53.132;18.006;2024-03-02T07:21:08;100662.38;;;8.28;84.85
77005;BME280;67261;53.132;18.006;2024-03-02T07:23:35;100667.63;;;8.32;84.61
77005;BME280;67261;53.132;18.006;2024-03-02T07:26:04;100669.35;;;8.34;84.55
77005;BME280;67261;53.132;18.006;2024-03-02T07:28:31;100669.51;;;8.46;84.63
77005;BME280;67261;53.132;18.006;2024-03-02T07:30:59;100660.89;;;8.57;84.12
77005;BME280;67261;53.132;18.006;2024-03-02T07:33:26;100647.48;;;8.65;83.91
77005;BME280;67261;53.132;18.006;2024-03-02T07:35:54;100656.73;;;8.72;83.49
77005;BME280;67261;53.132;18.006;2024-03-02T07:38:23;100659.67;;;8.76;83.21
77005;BME280;67261;53.132;18.006;2024-03-02T07:40:53;100671.85;;;8.80;83.12
77005;BME280;67261;53.132;18.006;2024-03-02T07:43:20;100675.05;;;8.83;83.19
77005;BME280;67261;53.132;18.006;2024-03-02T07:45:48;100671.25;;;8.92;82.93
77005;BME280;67261;53.132;18.006;2024-03-02T07:48:18;100669.73;;;9.04;82.61
77005;BME280;67261;53.132;18.006;2024-03-02T07:50:45;100674.39;;;9.18;82.41
77005;BME280;67261;53.132;18.006;2024-03-02T07:53:12;100668.81;;;9.33;81.72
77005;BME280;67261;53.132;18.006;2024-03-02T07:55:39;100671.27;;;9.57;80.86
77005;BME280;67261;53.132;18.006;2024-03-02T07:58:07;100670.05;;;9.85;80.73
77005;BME280;67261;53.132;18.006;2024-03-02T08:00:34;100666.81;;;10.18;80.15
77005;BME280;67261;53.132;18.006;2024-03-02T08:03:02;100669.16;;;10.53;79.18
77005;BME280;67261;53.132;18.006;2024-03-02T08:05:32;100659.25;;;10.72;78.29
77005;BME280;67261;53.132;18.006;2024-03-02T08:07:59;100659.75;;;10.89;78.55
77005;BME280;67261;53.132;18.006;2024-03-02T08:10:26;100660.26;;;11.02;78.03
77005;BME280;67261;53.132;18.006;2024-03-02T08:12:52;100666.67;;;11.04;77.09
77005;BME280;67261;53.132;18.006;2024-03-02T08:15:19;100671.03;;;11.07;77.24
77005;BME280;67261;53.132;18.006;2024-03-02T08:17:46;100674.44;;;11.15;78.04
77005;BME280;67261;53.132;18.006;2024-03-02T08:20:17;100679.34;;;11.27;78.38
77005;BME280;67261;53.132;18.006;2024-03-02T08:22:45;100680.14;;;11.36;78.23
77005;BME280;67261;53.132;18.006;2024-03-02T08:25:14;100678.39;;;11.44;77.00
77005;BME280;67261;53.132;18.006;2024-03-02T08:27:42;100678.91;;;11.55;76.81
77005;BME280;67261;53.132;18.006;2024-03-02T08:30:12;100683.27;;;11.64;76.68
77005;BME280;67261;53.132;18.006;2024-03-02T08:32:39;100689.20;;;11.71;75.50
77005;BME280;67261;53.132;18.006;2024-03-02T08:35:07;100691.01;;;11.75;76.32
77005;BME280;67261;53.132;18.006;2024-03-02T08:37:34;100685.96;;;11.77;75.00
77005;BME280;67261;53.132;18.006;2024-03-02T08:40:01;100681.89;;;11.69;75.26
77005;BME280;67261;53.132;18.006;2024-03-02T08:42:30;100676.70;;;11.67;75.60
77005;BME280;67261;53.132;18.006;2024-03-02T08:44:57;100677.05;;;11.71;76.19
77005;BME280;67261;53.132;18.006;2024-03-02T08:47:24;100675.45;;;11.73;75.84
77005;BME280;67261;53.132;18.006;2024-03-02T08:49:51;100673.40;;;11.73;75.69
77005;BME280;67261;53.132;18.006;2024-03-02T08:52:18;100679.11;;;11.73;75.04
77005;BME280;67261;53.132;18.006;2024-03-02T08:54:45;100682.38;;;11.74;75.50
77005;BME280;67261;53.132;18.006;2024-03-02T08:57:12;100686.92;;;11.78;75.13
77005;BME280;67261;53.132;18.006;2024-03-02T08:59:39;100685.42;;;11.74;74.88
77005;BME280;67261;53.132;18.006;2024-03-02T09:02:06;100691.01;;;11.71;74.86
77005;BME280;67261;53.132;18.006;2024-03-02T09:04:33;100694.84;;;11.75;75.61
77005;BME280;67261;53.132;18.006;2024-03-02T09:07:00;100694.02;;;11.83;74.46
77005;BME280;67261;53.132;18.006;2024-03-02T09:09:27;100686.85;;;11.85;74.67
77005;BME280;67261;53.132;18.006;2024-03-02T09:11:54;100689.23;;;11.95;75.24
77005;BME280;67261;53.132;18.006;2024-03-02T09:14:24;100692.67;;;11.99;74.52
77005;BME280;67261;53.132;18.006;2024-03-02T09:16:50;100700.12;;;12.05;74.47
77005;BME280;67261;53.132;18.006;2024-03-02T09:19:17;100705.13;;;12.16;74.05
77005;BME280;67261;53.132;18.006;2024-03-02T09:21:46;100706.48;;;12.30;74.09
77005;BME280;67261;53.132;18.006;2024-03-02T09:24:13;100703.35;;;12.36;73.76
77005;BME280;67261;53.132;18.006;2024-03-02T09:26:40;100699.96;;;12.34;73.41
77005;BME280;67261;53.132;18.006;2024-03-02T09:29:07;100699.05;;;12.31;72.79
77005;BME280;67261;53.132;18.006;2024-03-02T09:31:39;100690.34;;;12.28;72.26
77005;BME280;67261;53.132;18.006;2024-03-02T09:34:07;100700.02;;;12.31;72.25
77005;BME280;67261;53.132;18.006;2024-03-02T09:36:34;100705.75;;;12.32;72.19
77005;BME280;67261;53.132;18.006;2024-03-02T09:39:01;100695.45;;;12.37;71.79
77005;BME280;67261;53.132;18.006;2024-03-02T09:41:28;100687.79;;;12.40;71.74
77005;BME280;67261;53.132;18.006;2024-03-02T09:43:55;100690.81;;;12.42;72.02
77005;BME280;67261;53.132;18.006;2024-03-02T09:46:22;100696.17;;;12.42;71.99
77005;BME280;67261;53.132;18.006;2024-03-02T09:48:49;100699.48;;;12.44;72.18
77005;BME280;67261;53.132;18.006;2024-03-02T09:51:16;100700.92;;;12.49;72.42
77005;BME280;67261;53.132;18.006;2024-03-02T09:53:47;100695.96;;;12.65;71.75
77005;BME280;67261;53.132;18.006;2024-03-02T09:56:15;100701.05;;;12.75;71.68
77005;BME280;67261;53.132;18.006;2024-03-02T09:58:50;100711.02;;;12.85;71.30
77005;BME280;67261;53.132;18.006;2024-03-02T10:01:18;100708.38;;;12.95;71.47
77005;BME280;67261;53.132;18.006;2024-03-02T10:03:45;100709.06;;;13.02;71.01
77005;BME280;67261;53.132;18.006;2024-03-02T10:06:24;100708.91;;;13.00;69.99
77005;BME280;67261;53.132;18.006;2024-03-02T10:08:55;100710.81;;;12.90;70.27
77005;BME280;67261;53.132;18.006;2024-03-02T10:11:29;100710.35;;;12.88;70.26
77005;BME280;67261;53.132;18.006;2024-03-02T10:14:10;100704.00;;;12.88;69.75
77005;BME280;67261;53.132;18.006;2024-03-02T10:16:42;100699.52;;;12.85;69.47
77005;BME280;67261;53.132;18.006;2024-03-02T10:19:23;100704.17;;;12.77;69.00
77005;BME280;67261;53.132;18.006;2024-03-02T10:21:52;100699.19;;;12.71;69.89
77005;BME280;67261;53.132;18.006;2024-03-02T10:24:20;100694.45;;;12.72;69.93
77005;BME280;67261;53.132;18.006;2024-03-02T10:26:51;100692.19;;;12.78;70.09
77005;BME280;67261;53.132;18.006;2024-03-02T10:29:18;100689.52;;;12.87;70.39
77005;BME280;67261;53.132;18.006;2024-03-02T10:31:46;100692.59;;;12.97;69.40
77005;BME280;67261;53.132;18.006;2024-03-02T10:34:13;100696.02;;;12.98;69.75
77005;BME280;67261;53.132;18.006;2024-03-02T10:36:41;100696.44;;;13.04;70.22
77005;BME280;67261;53.132;18.006;2024-03-02T10:39:09;100689.65;;;13.12;69.60
77005;BME280;67261;53.132;18.006;2024-03-02T10:41:37;100684.92;;;13.16;68.89
77005;BME280;67261;53.132;18.006;2024-03-02T10:44:07;100680.89;;;13.12;68.27
77005;BME280;67261;53.132;18.006;2024-03-02T10:46:35;100684.61;;;13.09;68.62
77005;BME280;67261;53.132;18.006;2024-03-02T10:49:05;100684.72;;;13.08;68.70
77005;BME280;67261;53.132;18.006;2024-03-02T10:51:33;100686.09;;;13.12;68.67
77005;BME280;67261;53.132;18.006;2024-03-02T10:54:04;100686.14;;;13.08;68.02
77005;BME280;67261;53.132;18.006;2024-03-02T10:56:34;100678.80;;;13.05;68.71
77005;BME280;67261;53.132;18.006;2024-03-02T11:01:50;100665.05;;;13.17;68.10
77005;BME280;67261;53.132;18.006;2024-03-02T11:04:18;100674.29;;;13.16;67.96
77005;BME280;67261;53.132;18.006;2024-03-02T11:06:49;100672.87;;;13.13;68.50
77005;BME280;67261;53.132;18.006;2024-03-02T11:09:22;100665.49;;;13.13;68.68
77005;BME280;67261;53.132;18.006;2024-03-02T11:12:26;100668.40;;;13.13;68.63
77005;BME280;67261;53.132;18.006;2024-03-02T11:14:55;100668.98;;;13.14;68.83
77005;BME280;67261;53.132;18.006;2024-03-02T11:17:23;100670.77;;;13.17;68.71
77005;BME280;67261;53.132;18.006;2024-03-02T11:19:52;100669.98;;;13.21;68.68
77005;BME280;67261;53.132;18.006;2024-03-02T11:22:19;100674.20;;;13.21;68.73
77005;BME280;67261;53.132;18.006;2024-03-02T11:24:48;100672.39;;;13.18;68.60
77005;BME280;67261;53.132;18.006;2024-03-02T11:27:58;100664.67;;;13.13;68.56
77005;BME280;67261;53.132;18.006;2024-03-02T11:33:00;100665.29;;;13.07;68.12
77005;BME280;67261;53.132;18.006;2024-03-02T11:35:27;100657.13;;;13.05;68.52
77005;BME280;67261;53.132;18.006;2024-03-02T11:38:01;100655.73;;;13.08;68.71
77005;BME280;67261;53.132;18.006;2024-03-02T11:40:28;100666.66;;;13.14;68.38
77005;BME280;67261;53.132;18.006;2024-03-02T11:42:59;100668.46;;;13.14;67.81
77005;BME280;67261;53.132;18.006;2024-03-02T11:45:27;100664.23;;;13.09;67.70
77005;BME280;67261;53.132;18.006;2024-03-02T11:47:55;100668.09;;;13.08;68.30
77005;BME280;67261;53.132;18.006;2024-03-02T11:50:36;100669.42;;;13.07;67.94
77005;BME280;67261;53.132;18.006;2024-03-02T11:53:05;100669.27;;;13.02;68.22
77005;BME280;67261;53.132;18.006;2024-03-02T11:55:36;100664.30;;;13.02;68.62
77005;BME280;67261;53.132;18.006;2024-03-02T11:58:03;100666.91;;;12.99;68.22
77005;BME280;67261;53.132;18.006;2024-03-02T12:00:30;100664.59;;;12.96;68.53
77005;BME280;67261;53.132;18.006;2024-03-02T12:05:28;100653.37;;;12.95;68.70
77005;BME280;67261;53.132;18.006;2024-03-02T12:07:59;100657.09;;;13.00;68.76
77005;BME280;67261;53.132;18.006;2024-03-02T12:10:27;100654.67;;;13.07;68.48
77005;BME280;67261;53.132;18.006;2024-03-02T12:13:01;100654.64;;;13.10;68.40
77005;BME280;67261;53.132;18.006;2024-03-02T12:15:30;100655.99;;;13.17;68.52
77005;BME280;67261;53.132;18.006;2024-03-02T12:17:59;100650.50;;;13.25;68.49
77005;BME280;67261;53.132;18.006;2024-03-02T12:20:28;100646.84;;;13.29;67.84
77005;BME280;67261;53.132;18.006;2024-03-02T12:23:02;100647.95;;;13.29;67.45
77005;BME280;67261;53.132;18.006;2024-03-02T12:25:32;100647.15;;;13.28;67.47
77005;BME280;67261;53.132;18.006;2024-03-02T12:28:02;100646.38;;;13.24;67.54
77005;BME280;67261;53.132;18.006;2024-03-02T12:30:30;100645.72;;;13.21;67.58
77005;BME280;67261;53.132;18.006;2024-03-02T12:32:59;100649.52;;;13.19;67.53
77005;BME280;67261;53.132;18.006;2024-03-02T12:35:26;100643.48;;;13.21;67.87
77005;BME280;67261;53.132;18.006;2024-03-02T12:37:54;100642.52;;;13.23;67.53
77005;BME280;67261;53.132;18.006;2024-03-02T12:40:23;100641.36;;;13.27;67.71
77005;BME280;67261;53.132;18.006;2024-03-02T12:42:50;100636.84;;;13.34;67.63
77005;BME280;67261;53.132;18.006;2024-03-02T12:45:18;100637.02;;;13.45;67.58
77005;BME280;67261;53.132;18.006;2024-03-02T12:47:50;100635.57;;;13.55;67.05
77005;BME280;67261;53.132;18.006;2024-03-02T12:50:21;100635.63;;;13.60;66.54
77005;BME280;67261;53.132;18.006;2024-03-02T12:52:54;100636.13;;;13.62;66.45
77005;BME280;67261;53.132;18.006;2024-03-02T12:55:22;100636.17;;;13.60;66.25
77005;BME280;67261;53.132;18.006;2024-03-02T12:57:50;100637.38;;;13.54;65.98
77005;BME280;67261;53.132;18.006;2024-03-02T13:00:19;100636.05;;;13.52;66.59
77005;BME280;67261;53.132;18.006;2024-03-02T13:02:48;100637.87;;;13.53;66.59